Nearby METAR Reports

 

CYFC - Fredericton Airp, New Brunswick
Distance from station: E 14km
Updated: Thu, 06-May-2021 7:00am ADT
Light rain, Overcast
Light rain, Overcast
 Wind from NNE
Wind: NNE 11 km/h
Temperature: 5°C
Wind Chill: 2°C
Dew Point: 5°C
Humidity: 100%
Barometer: 1002.4 hPa
Summary: Light rain
Clouds: Overcast
Visibility: 14 km
Cloud details: Few Clouds 305 m
Overcast 488 m
2021/05/06 10:00 CYFC 061000Z AUTO 03006KT 9SM -RA FEW010 OVC016 05/05 A2960 RMK SLP025
CYCX - Gagetown (can M, New Brunswick
Distance from station: E 22km
Updated: Thu, 06-May-2021 7:00am ADT
Overcast
Overcast
 Wind from NE
Wind: NE 9 km/h
Temperature: 5°C
Wind Chill: 3°C
Dew Point: 3°C
Humidity: 87%
Barometer: 1002.4 hPa
Clouds: Overcast
Visibility: 8 km
Cloud details: Overcast 183 m
2021/05/06 10:00 CYCX 061000Z AUTO 05005KT 020V090 5SM OVC006 05/03 A2960 RMK SLP025
 
CYQM - Moncton Airport, New Brunswick
Distance from station: ENE 159km
Updated: Thu, 06-May-2021 7:00am ADT
Light rain, Mist, Overcast
Light rain, Mist, Overcast
 Wind from NE
Wind: NE 17 km/h
Temperature: 4°C
Wind Chill: 0°C
Dew Point: 4°C
Humidity: 100%
Barometer: 1002 hPa
Summary: Light rain, Mist
Clouds: Overcast
Visibility: 2.8 km
Cloud details: Mostly cloudy 183 m
Mostly cloudy 396 m
Overcast 914 m
2021/05/06 10:00 CYQM 061000Z 05009KT 1 3/4SM -RA BR BKN006 BKN013 OVC030 04/04 A2959 RMK SF5SC2SC1 SLP023
CYSJ - Saint John, New Brunswick
Distance from station: SE 88km
Updated: Thu, 06-May-2021 7:00am ADT
Light rain, Mist, Overcast
Light rain, Mist, Overcast
 Wind from N
Wind: N 7 km/h
Temperature: 4°C
Wind Chill: 2°C
Dew Point: 4°C
Humidity: 100%
Barometer: 1001.4 hPa
Summary: Light rain, Mist
Clouds: Overcast
Visibility: 4 km
Cloud details: Overcast 274 m
2021/05/06 10:00 CYSJ 061000Z 35004KT 2 1/2SM -RA BR OVC009 04/04 A2957 RMK SF8 SLP019
 
CWPE - Point Lepreau, New Brunswick
Distance from station: SSE 90km
Updated: Thu, 06-May-2021 7:00am ADT

 Wind from NNE
Wind: NNE 4 km/h
Temperature: 5°C
Dew Point: 4°C
Humidity: 93%
2021/05/06 10:00 CWPE 061000Z AUTO 02002KT 05/04 RMK AO1 SLP020 T00470042 55004
CYHZ - Halifax Intl Arp, Nova Scotia
Distance from station: ESE 273km
Updated: Thu, 06-May-2021 7:00am ADT
Light rain, Mist, Overcast
Light rain, Mist, Overcast
 Wind from E
Wind: E 20 km/h, Gust: 35 km/h
Temperature: 4°C
Wind Chill: -1°C
Dew Point: 4°C
Humidity: 100%
Barometer: 999.3 hPa
Summary: Light rain, Mist
Clouds: Overcast
Visibility: 5 km
Cloud details: Overcast 122 m
2021/05/06 10:00 CYHZ 061000Z 09011G19KT 3SM -RA BR OVC004 04/04 A2951 RMK ST8 SLP000
 
CYZX - Greenwood (can M, Nova Scotia
Distance from station: SE 169km
Updated: Thu, 06-May-2021 7:00am ADT
Light rain, Mist, Overcast
Light rain, Mist, Overcast
 Wind from NNE
Wind: NNE 13 km/h
Temperature: 5°C
Wind Chill: 2°C
Dew Point: 5°C
Humidity: 100%
Barometer: 1000.3 hPa
Summary: Light rain, Mist
Clouds: Overcast
Visibility: 3 km
Cloud details: Overcast 152 m
2021/05/06 10:00 CYZX 061000Z 03007KT 2SM -RA BR OVC005 05/05 A2954 RMK SF8 SLP005
CYQI - Yarmouth Airport, Nova Scotia
Distance from station: SSE 230km
Updated: Thu, 06-May-2021 7:00am ADT
Light drizzle, Mist, Overcast
Light drizzle, Mist, Overcast
 Wind from NNW
Wind: NNW 17 km/h
Temperature: 6°C
Wind Chill: 3°C
Dew Point: 6°C
Humidity: 100%
Barometer: 1000.3 hPa
Summary: Light drizzle, Mist
Clouds: Overcast
Visibility: 2 km
Cloud details: Overcast 91 m
2021/05/06 10:00 CYQI 061000Z 33009KT 1 1/4SM -DZ BR OVC003 06/06 A2954 RMK ST8 SLP006
 
KHUL - Houlton, Maine, USA
Distance from station: WNW 90km
Updated: Thu, 06-May-2021 6:53am ADT
Light rain, Mist, Overcast
Light rain, Mist, Overcast
 Wind from NNE
Wind: NNE 9 km/h
Temperature: 4°C
Wind Chill: 2°C
Dew Point: 4°C
Humidity: 100%
Barometer: 1002.7 hPa
Summary: Light rain, Mist
Clouds: Overcast
Visibility: 8 km
Cloud details: Overcast 91 m
2021/05/06 09:53 KHUL 060953Z AUTO 02005KT 5SM -RA BR OVC003 04/04 A2961 RMK AO2 RAB0859E15B52 SLP033 P0000 T00440039
KPQI - Presque Isle, Maine, USA
Distance from station: NW 137km
Updated: Thu, 06-May-2021 7:04am ADT
Light rain, Overcast
Light rain, Overcast
 Wind from NNE
Wind: NNE 13 km/h
Temperature: 3°C
Wind Chill: -1°C
Dew Point: 2°C
Humidity: 93%
Barometer: 1004.4 hPa
Summary: Light rain
Clouds: Overcast
Visibility: 16 km
Cloud details: Partly cloudy 244 m
Mostly cloudy 610 m
Overcast 762 m
2021/05/06 10:04 KPQI 061004Z AUTO 02007KT 10SM -RA SCT008 BKN020 OVC025 03/02 A2966 RMK AO2 P0000
 
KCAR - Caribou, Maine, USA
Distance from station: NW 151km
Updated: Thu, 06-May-2021 7:13am ADT
Light rain, Overcast
Light rain, Overcast
 Wind from NNE
Wind: NNE 13 km/h
Temperature: 2°C
Wind Chill: -1°C
Dew Point: 1°C
Humidity: 93%
Barometer: 1003.7 hPa
Summary: Light rain
Clouds: Overcast
Visibility: 16 km
Cloud details: Mostly cloudy 152 m
Mostly cloudy 671 m
Overcast 914 m
2021/05/06 10:13 KCAR 061013Z AUTO 02007KT 10SM -RA BKN005 BKN022 OVC030 02/01 A2964 RMK AO2 P0002 T00220006
KMLT - Millinocket, Maine, USA
Distance from station: W 157km
Updated: Thu, 06-May-2021 7:15am ADT
Overcast
Overcast
 Wind from calm
Wind: Calm
Temperature: 6°C
Dew Point: 4°C
Humidity: 87%
Barometer: 1004.1 hPa
Clouds: Overcast
Visibility: 16 km
Cloud details: Overcast 366 m
2021/05/06 10:15 KMLT 061015Z AUTO 00000KT 10SM OVC012 06/04 A2965 RMK AO2 T00560044
 
KBGR - Bangor, Maine, USA
Distance from station: SW 203km
Updated: Thu, 06-May-2021 6:53am ADT
Light drizzle, Overcast
Light drizzle, Overcast
 Wind from W
Wind: W 6 km/h
Temperature: 6°C
Dew Point: 5°C
Humidity: 93%
Barometer: 1004.1 hPa
Summary: Light Drizzle
Clouds: Overcast
Visibility: 16 km
Cloud details: Few Clouds 305 m
Mostly cloudy 823 m
Overcast 1676 m
2021/05/06 09:53 KBGR 060953Z 26003KT 10SM -DZ FEW010 BKN027 OVC055 06/05 A2965 RMK AO2 DZB50 SLP041 P0000 T00560050
KBHB - Bar Harbor, Maine, USA
Distance from station: SW 204km
Updated: Thu, 06-May-2021 6:56am ADT
Overcast
Overcast
 Wind from WNW
Wind: WNW 6 km/h
Temperature: 6°C
Dew Point: 5°C
Humidity: 93%
Barometer: 1004.1 hPa
Clouds: Overcast
Visibility: 16 km
Cloud details: Overcast 305 m
2021/05/06 09:56 KBHB 060956Z AUTO 29003KT 10SM OVC010 06/05 A2965 RMK AO2 CIG 009V013 SLP041 T00560050
 
CWVU - Brier Island(Aut, Nova Scotia
Distance from station: S 177km
Updated: Thu, 06-May-2021 7:00am ADT

 Wind from N
Wind: N 20 km/h
Temperature: 6°C
Wind Chill: 2°C
Dew Point: 6°C
Humidity: 100%
2021/05/06 10:00 CWVU 061000Z AUTO 01011KT 06/06 RMK AO1 5002 SLP008 T00570057 50006
CXNP - Nappan (auto), Nova Scotia
Distance from station: E 191km
Updated: Thu, 06-May-2021 7:00am ADT

 Wind from NE
Wind: NE 7 km/h
Temperature: 4°C
Wind Chill: 2°C
Dew Point: 4°C
Humidity: 100%
2021/05/06 10:00 CXNP 061000Z AUTO 05004KT 04/04 RMK AO1 0PAST HR 6028 SLP015 P0004 T00440039 50087
 
CXKT - Kentville (autob, Nova Scotia
Distance from station: ESE 193km
Updated: Thu, 06-May-2021 7:00am ADT

 Wind from NE
Wind: NE 9 km/h
Temperature: 4°C
Wind Chill: 2°C
Dew Point: 4°C
Humidity: 100%
2021/05/06 10:00 CXKT 061000Z AUTO 05005KT 04/04 RMK AO1 7PAST HR 6022 SLP999 P0003 T00350042 50112
CWKG - Kejimkujik (au8), Nova Scotia
Distance from station: SE 197km
Updated: Thu, 06-May-2021 7:00am ADT

 Wind from ENE
Wind: ENE 4 km/h
Temperature: 5°C
Dew Point: 5°C
Humidity: 100%
2021/05/06 10:00 CWKG 061000Z AUTO 06002KT 05/05 RMK AO1 5004 SLP994 T00520051 50005
 
KFVE - Frenchville, Maine, USA
Distance from station: NW 201km
Updated: Thu, 06-May-2021 6:53am ADT
Light snow, Mist, Overcast
Light snow, Mist, Overcast
 Wind from NE
Wind: NE 13 km/h
Temperature: 1°C
Wind Chill: -3°C
Dew Point: 0°C
Humidity: 93%
Barometer: 1004.1 hPa
Summary: Light snow, Mist
Clouds: Overcast
Visibility: 10 km
Cloud details: Partly cloudy 152 m
Overcast 518 m
2021/05/06 09:53 KFVE 060953Z AUTO 04007KT 6SM -SN BR SCT005 OVC017 01/00 A2965 RMK AO2 RAE46SNB46 SLP046 P0003 I1000 T00110000
CZBF - Bathurst Arpt(Aw, New Brunswick
Distance from station: NNE 208km
Updated: Thu, 06-May-2021 7:00am ADT
Light rain, Mist, Overcast
Light rain, Mist, Overcast
 Wind from NE
Wind: NE 11 km/h
Temperature: 4°C
Wind Chill: 1°C
Dew Point: 4°C
Humidity: 100%
Barometer: 1006.8 hPa
Summary: Light rain, Mist
Clouds: Overcast
Visibility: 8 km
Cloud details: Mostly cloudy 91 m
Overcast 335 m
2021/05/06 10:00 CZBF 061000Z AUTO 05006KT 5SM -RA BR BKN003 OVC011 04/04 A2973 RMK SLP071
 
CERM - Edmunston, New Brunswick
Distance from station: NW 213km
Updated: Thu, 06-May-2021 7:00am ADT

 Wind from WNW
Wind: WNW 2 km/h
Temperature: 2°C
Dew Point: 2°C
Humidity: 100%
2021/05/06 10:00 CERM 061000Z AUTO 29001KT 02/02 RMK AO1 SLP053 T00230015 56006
KGNR - Greenville, Maine, USA
Distance from station: W 226km
Updated: Thu, 06-May-2021 6:56am ADT

 Wind from NW
Wind: NW 9 km/h
Temperature: 5°C
Wind Chill: 3°C
Dew Point: 3°C
Humidity: 87%
Barometer: 1002 hPa
2021/05/06 09:56 KGNR 060956Z AUTO 32005KT 05/03 A2959 RMK AO1 SLP031 P0001 T00500033
 
CWSD - Summerside (auto, PEI
Distance from station: ENE 228km
Updated: Thu, 06-May-2021 7:00am ADT

 Wind from E
Wind: E 28 km/h
Temperature: 5°C
Wind Chill: 1°C
Dew Point: 4°C
Humidity: 93%
2021/05/06 10:00 CWSD 061000Z AUTO 08015KT 05/04 RMK AO1 9PAST HR 7029 PK WND 07020/0939 SLP036 P0004 T00460038 50069
K40B - Clayton Lake, Maine, USA
Distance from station: WNW 233km
Updated: Thu, 06-May-2021 6:16am ADT

 Wind from calm
Wind: Calm
Temperature: 4°C
Barometer: 1003.4 hPa
2021/05/06 09:16 K40B 060916Z AUTO 00000KT 04/ A2963 RMK AO1 SLP045 T0042 57002 P0005 60013
 
CZCR - Charlo Airport, New Brunswick
Distance from station: N 236km
Updated: Thu, 06-May-2021 7:00am ADT

 Wind from ENE
Wind: ENE 22 km/h
Temperature: 3°C
Wind Chill: -2°C
Dew Point: 2°C
Humidity: 93%
2021/05/06 10:00 CZCR 061000Z AUTO 06012KT 03/02 RMK AO1 PK WND 07024/0924 SLP069 T00280019 55006
CWNE - North Point (aut, Ontario
Distance from station: NE 246km
Updated: Thu, 06-May-2021 7:00am ADT

 
2021/05/06 10:00 CWNE 061000Z AUTO RMK AO1
 
CXLB - Lunenburg, Nova Scotia
Distance from station: SE 250km
Updated: Thu, 06-May-2021 7:00am ADT

 Wind from NE
Wind: NE 28 km/h
Temperature: 6°C
Wind Chill: 2°C
Dew Point: 6°C
Humidity: 100%
2021/05/06 10:00 CXLB 061000Z AUTO 04015KT 06/06 RMK AO1 PK WND 05024/0917 SLP976 T00560056 57020
CZDB - Debert, Nova Scotia
Distance from station: E 255km
Updated: Thu, 06-May-2021 7:00am ADT

 Wind from E
Wind: E 19 km/h, Gust: 28 km/h
Temperature: 5°C
Wind Chill: 1°C
Dew Point: 4°C
Humidity: 93%
2021/05/06 10:00 CZDB 061000Z AUTO 08010G15KT 05/04 RMK AO1 7PAST HR 8026 SLP012 P0011 T00460038 50126
 
CWOC - New Carlisle1, Quebec
Distance from station: NNE 262km
Updated: Thu, 06-May-2021 7:00am ADT

 Wind from ENE
Wind: ENE 13 km/h
Temperature: 3°C
Wind Chill: -1°C
Dew Point: 2°C
Humidity: 93%
2021/05/06 10:00 CWOC 061000Z AUTO 06007KT 03/02 RMK AO1 3PAST HR 5012 SLP068 P0005 T00300020 50045
CWWE - Western Head (ma, Nova Scotia
Distance from station: SE 264km
Updated: Thu, 06-May-2021 7:00am ADT

 Wind from N
Wind: N 11 km/h
Temperature: 5°C
Wind Chill: 2°C
2021/05/06 10:00 CWWE 061000Z AUTO 36006KT 05/ RMK AO1 2PAST HR 5013 SLP980 P0001 T0054 50025
 
KRKD - Rockland/Knox, Maine, USA
Distance from station: SW 274km
Updated: Thu, 06-May-2021 7:10am ADT
Overcast
Overcast
 Wind from W
Wind: W 9 km/h
Temperature: 7°C
Wind Chill: 6°C
Dew Point: 7°C
Humidity: 100%
Barometer: 1004.7 hPa
Clouds: Overcast
Visibility: 16 km
Cloud details: Mostly cloudy 274 m
Overcast 640 m
2021/05/06 10:10 KRKD 061010Z AUTO 27005KT 10SM BKN009 OVC021 07/07 A2967 RMK AO2
CAHR - Harrington Cda, Ontario
Distance from station: ENE 277km
Updated: Thu, 06-May-2021 7:00am ADT

 Wind from E
Wind: E 13 km/h
Temperature: 4°C
Wind Chill: 1°C
Dew Point: 3°C
Humidity: 93%
2021/05/06 10:00 CAHR 061000Z AUTO 08007KT 04/03 RMK AO1 3PAST HR 7031 SLP033 P0013 T00420031 50085
 
KWVL - Waterville, Maine, USA
Distance from station: WSW 277km
Updated: Thu, 06-May-2021 6:56am ADT
Mostly cloudy
Mostly cloudy
 Wind from calm
Wind: Calm
Temperature: 6°C
Dew Point: 6°C
Humidity: 100%
Barometer: 1003.7 hPa
Clouds: Mostly cloudy
Visibility: 16 km
Cloud details: Few Clouds 1006 m
Mostly cloudy 1524 m
2021/05/06 09:56 KWVL 060956Z AUTO 00000KT 10SM FEW033 BKN050 06/06 A2964 RMK AO2 SLP065 T00610061 PNO $
CYYG - Charlottetown Ar, PEI
Distance from station: E 280km
Updated: Thu, 06-May-2021 7:00am ADT
Light rain, Mist, Overcast
Light rain, Mist, Overcast
 Wind from E
Wind: E 24 km/h, Gust: 35 km/h
Temperature: 4°C
Wind Chill: -1°C
Dew Point: 4°C
Humidity: 100%
Barometer: 1003 hPa
Summary: Light rain, Mist
Clouds: Overcast
Visibility: 10 km
Cloud details: Partly cloudy 244 m
Overcast 1067 m
2021/05/06 10:00 CYYG 061000Z 08013G19KT 6SM -RA BR SCT008 OVC035 04/04 A2962 RMK SF3NS5 SLP033
 
CXMI - Mcnabs Island, Nova Scotia
Distance from station: ESE 284km
Updated: Thu, 06-May-2021 7:00am ADT

 Wind from E
Wind: E 31 km/h, Gust: 46 km/h
Temperature: 5°C
Wind Chill: 0°C
Dew Point: 4°C
Humidity: 93%
2021/05/06 10:00 CXMI 061000Z AUTO 08017G25KT 05/04 RMK AO1 PK WND 08025/0952 SLP986 T00510035 56024
KAUG - Augusta, Maine, USA
Distance from station: SW 298km
Updated: Thu, 06-May-2021 7:03am ADT
Overcast
Overcast
 Wind from varies
Wind: varies 6 km/h
Temperature: 7°C
Dew Point: 7°C
Humidity: 100%
Barometer: 1004.4 hPa
Clouds: Overcast
Visibility: 16 km
Cloud details: Partly cloudy 122 m
Mostly cloudy 1158 m
Overcast 2743 m
2021/05/06 10:03 KAUG 061003Z AUTO VRB03KT 10SM SCT004 BKN038 OVC090 07/07 A2966 RMK AO2 T00670067
 
CWST - La Pocatiere, Quebec
Distance from station: NW 303km
Updated: Thu, 06-May-2021 7:00am ADT

 Wind from NE
Wind: NE 4 km/h
Temperature: 6°C
Dew Point: 5°C
Humidity: 93%
2021/05/06 10:00 CWST 061000Z AUTO 05002KT 06/05 RMK AO1 0PAST HR 3003 SLP044 P0004 T00610051 50034
CWNH - Riviere Du Loup, Quebec
Distance from station: NW 304km
Updated: Thu, 06-May-2021 7:00am ADT

 Wind from E
Wind: E 6 km/h
Temperature: 4°C
Dew Point: 3°C
Humidity: 93%
2021/05/06 10:00 CWNH 061000Z AUTO 10003KT 04/03 RMK AO1 2PAST HR 3002 SLP057 P0001 T00370030 50033
 
CWBK - Caribou Point(Ma, Nova Scotia
Distance from station: E 312km
Updated: Thu, 06-May-2021 7:00am ADT

 Wind from E
Wind: E 35 km/h
Temperature: 5°C
Wind Chill: -1°C
Dew Point: 4°C
Humidity: 93%
2021/05/06 10:00 CWBK 061000Z AUTO 08019KT 05/04 RMK AO1 2PAST HR 6032 PK WND 08022/0959 SLP029 P0020 T00480042 50129
CWHV - Beauceville, Quebec
Distance from station: W 317km
Updated: Thu, 06-May-2021 7:00am ADT

 Wind from NW
Wind: NW 7 km/h
Temperature: 6°C
Wind Chill: 4°C
Dew Point: 5°C
Humidity: 93%
2021/05/06 10:00 CWHV 061000Z AUTO 31004KT 06/05 RMK AO1 2PAST HR 3010 SLP047 P0001 T00610051 50015
 
KIWI - Wiscasset, Maine, USA
Distance from station: SW 318km
Updated: Thu, 06-May-2021 6:53am ADT
Overcast
Overcast
 Wind from WSW
Wind: WSW 6 km/h
Temperature: 7°C
Dew Point: 7°C
Humidity: 100%
Barometer: 1005.1 hPa
Clouds: Overcast
Visibility: 16 km
Cloud details: Partly cloudy 1250 m
Overcast 2438 m
2021/05/06 09:53 KIWI 060953Z AUTO 25003KT 10SM SCT041 OVC080 07/07 A2968 RMK AO2 SLP051 T00720067